Time;durP1;ratioP1;P1;durP2;ratioP2;P2;SDS_P1;SDS_P2;PMS_P1;PMS_P2;Temp;Humidity;BMP_temperature;BMP_pressure;BME280_temperature;BME280_humidity;BME280_pressure;Samples;Min_cycle;Max_cycle;Signal;HPM_P1;HPM_P2
2024/01/04 00:00:09;;;;;;;2.87;1.80;;;;;;;12.14;49.04;98198.00;7711558;32;36855;-82
2024/01/04 00:04:25;;;;;;;3.17;1.90;;;;;;;12.57;48.31;98191.72;7710749;32;40098;-81
2024/01/04 00:08:41;;;;;;;4.65;2.30;;;;;;;12.62;48.19;98199.75;7711453;32;40826;-81
2024/01/04 00:12:58;;;;;;;5.05;2.33;;;;;;;12.28;50.10;98216.97;7711317;32;38858;-82
2024/01/04 00:17:14;;;;;;;7.18;2.72;;;;;;;12.22;50.46;98221.78;7711334;32;37686;-81
2024/01/04 00:21:30;;;;;;;4.47;2.50;;;;;;;12.08;51.12;98223.88;7711190;32;40061;-82
2024/01/04 00:25:47;;;;;;;5.93;2.50;;;;;;;12.18;51.13;98218.09;7711277;32;40937;-81
2024/01/04 00:30:03;;;;;;;5.68;2.55;;;;;;;11.81;52.14;98244.84;7711164;32;38894;-81
2024/01/04 00:34:20;;;;;;;5.82;2.50;;;;;;;11.70;52.80;98229.88;7711143;32;36848;-82
2024/01/04 00:38:36;;;;;;;6.82;2.47;;;;;;;11.90;52.49;98232.03;7711093;32;39314;-82
2024/01/04 00:42:53;;;;;;;5.05;2.60;;;;;;;11.76;52.85;98223.13;7710835;32;39913;-81
2024/01/04 00:47:09;;;;;;;2.58;1.92;;;;;;;11.75;52.19;98210.63;7710822;32;37961;-81
2024/01/04 00:51:26;;;;;;;3.40;2.30;;;;;;;11.99;51.33;98221.16;7710847;32;36967;-81
2024/01/04 00:55:42;;;;;;;5.28;2.30;;;;;;;12.07;50.91;98222.25;7710757;32;39349;-81
2024/01/04 00:59:58;;;;;;;4.82;2.67;;;;;;;11.80;51.25;98246.78;7710490;32;40649;-82
2024/01/04 01:04:14;;;;;;;6.18;2.60;;;;;;;11.72;51.76;98252.22;7710411;32;37939;-81
2024/01/04 01:08:31;;;;;;;8.10;2.40;;;;;;;11.58;52.07;98247.66;7710480;32;38124;-81
2024/01/04 01:12:47;;;;;;;3.37;2.17;;;;;;;11.63;51.90;98242.06;7710452;32;39557;-81
2024/01/04 01:17:03;;;;;;;3.72;2.40;;;;;;;11.68;51.65;98243.06;7712345;32;39950;-82
2024/01/04 01:21:19;;;;;;;3.00;2.25;;;;;;;11.67;51.63;98233.25;7713295;32;38590;-81
2024/01/04 01:25:36;;;;;;;6.45;2.60;;;;;;;11.64;51.60;98224.56;7713390;32;37107;-82
2024/01/04 01:29:52;;;;;;;5.62;2.83;;;;;;;11.70;51.23;98218.97;7713517;32;39115;-81
2024/01/04 01:34:09;;;;;;;6.18;2.87;;;;;;;11.73;50.99;98223.78;7713315;32;40837;-81
2024/01/04 01:38:25;;;;;;;5.20;2.55;;;;;;;11.44;51.78;98234.13;7713212;32;37800;-82
2024/01/04 01:42:47;;;;;;;4.72;2.35;;;;;;;11.55;51.50;98222.94;7713173;32;37244;-82
2024/01/04 01:47:04;;;;;;;7.35;2.83;;;;;;;11.63;51.21;98235.81;7713152;32;39367;-82
2024/01/04 01:51:20;;;;;;;5.47;2.35;;;;;;;11.53;51.65;98227.91;7713084;32;40794;-81
2024/01/04 01:55:37;;;;;;;8.23;2.53;;;;;;;11.37;51.95;98222.88;7712969;32;38034;-81
2024/01/04 01:59:53;;;;;;;6.43;2.70;;;;;;;11.34;51.96;98219.97;7699146;32;37126;-81
2024/01/04 02:04:10;;;;;;;4.65;2.60;;;;;;;11.43;51.71;98227.09;7699205;32;40127;-82
2024/01/04 02:08:26;;;;;;;4.87;2.17;;;;;;;11.41;51.43;98202.00;7712938;32;40656;-81
2024/01/04 02:12:42;;;;;;;6.10;2.50;;;;;;;11.49;51.29;98196.91;7712934;32;38600;-81
2024/01/04 02:16:58;;;;;;;6.65;2.78;;;;;;;11.46;51.22;98192.88;7712814;32;38519;-81
2024/01/04 02:21:15;;;;;;;5.65;2.42;;;;;;;11.63;50.73;98209.31;7712963;32;39433;-81
2024/01/04 02:25:31;;;;;;;8.18;2.58;;;;;;;11.50;50.83;98204.78;7712636;32;39984;-81
2024/01/04 02:29:47;;;;;;;9.55;2.42;;;;;;;11.55;50.59;98207.34;7712024;32;37939;-81
2024/01/04 02:34:04;;;;;;;3.45;2.22;;;;;;;11.60;50.40;98218.13;7712571;32;37306;-82
2024/01/04 02:38:21;;;;;;;4.97;2.22;;;;;;;11.54;50.44;98224.87;7712702;32;40159;-81
2024/01/04 02:42:37;;;;;;;6.12;2.67;;;;;;;11.32;50.99;98209.37;7698653;32;40816;-81
2024/01/04 02:46:53;;;;;;;5.55;2.50;;;;;;;11.16;51.30;98247.19;7712366;32;38785;-82
2024/01/04 02:51:10;;;;;;;4.25;2.58;;;;;;;11.18;51.74;98265.97;7712383;32;37763;-81
2024/01/04 02:55:26;;;;;;;6.40;2.75;;;;;;;10.43;54.54;98280.03;7712373;32;39368;-81
2024/01/04 02:59:42;;;;;;;6.10;2.70;;;;;;;10.40;54.93;98286.09;7712122;32;39828;-80
2024/01/04 03:03:58;;;;;;;4.68;2.90;;;;;;;10.52;54.49;98278.19;7712021;32;38735;-81
2024/01/04 03:08:15;;;;;;;5.03;2.70;;;;;;;10.49;54.82;98295.16;7712087;32;37925;-81
2024/01/04 03:12:31;;;;;;;6.07;2.87;;;;;;;10.59;54.61;98306.91;7712023;32;39398;-81
2024/01/04 03:16:47;;;;;;;8.30;3.03;;;;;;;10.31;56.42;98301.50;7712012;32;39882;-82
2024/01/04 03:21:05;;;;;;;7.78;3.60;;;;;;;10.27;57.91;98284.19;7711943;32;37926;-82
2024/01/04 03:25:22;;;;;;;9.90;3.30;;;;;;;10.24;58.64;98254.84;7712071;32;36016;-82
2024/01/04 03:29:38;;;;;;;6.85;3.05;;;;;;;10.47;57.67;98223.81;7698264;32;39158;-81
2024/01/04 03:33:55;;;;;;;7.55;2.92;;;;;;;10.72;57.58;98251.56;7711889;32;40652;-81
2024/01/04 03:38:11;;;;;;;6.22;3.00;;;;;;;10.48;58.26;98236.31;7710749;32;39481;-81
2024/01/04 03:42:27;;;;;;;4.57;2.83;;;;;;;10.51;58.16;98232.97;7711765;32;37130;-81
2024/01/04 03:46:44;;;;;;;4.30;2.33;;;;;;;10.49;57.43;98209.87;7711794;32;39313;-81
2024/01/04 03:51:01;;;;;;;4.57;2.47;;;;;;;10.67;56.81;98186.28;7711855;32;40142;-81
2024/01/04 03:55:17;;;;;;;7.78;2.53;;;;;;;10.53;56.66;98170.78;7711477;32;38797;-82
2024/01/04 03:59:37;;;;;;;6.57;2.15;;;;;;;10.51;56.56;98180.41;7711509;32;37294;-81
2024/01/04 04:03:53;;;;;;;4.35;2.28;;;;;;;10.63;55.64;98190.75;7711662;32;39377;-82
2024/01/04 04:08:10;;;;;;;5.12;2.42;;;;;;;10.94;53.22;98193.47;7711470;32;40012;-82
2024/01/04 04:12:26;;;;;;;4.93;2.60;;;;;;;10.70;54.64;98221.09;7711522;32;38516;-81
2024/01/04 04:16:42;;;;;;;5.10;2.60;;;;;;;10.56;56.08;98242.94;7711403;32;37911;-81
2024/01/04 04:20:58;;;;;;;6.93;2.75;;;;;;;10.59;55.92;98238.78;7711347;32;39211;-81
2024/01/04 04:25:15;;;;;;;4.03;2.40;;;;;;;10.58;55.67;98235.28;7711196;32;40822;-81
2024/01/04 04:29:31;;;;;;;7.50;3.00;;;;;;;10.74;55.22;98238.41;7711131;32;38141;-81
2024/01/04 04:33:48;;;;;;;8.43;2.90;;;;;;;10.39;57.30;98248.28;7711206;32;37060;-82
2024/01/04 04:38:05;;;;;;;9.82;2.97;;;;;;;10.51;57.16;98241.16;7711001;32;40182;-81
2024/01/04 04:42:21;;;;;;;5.55;2.80;;;;;;;10.57;56.83;98246.47;7710895;32;41134;-81
2024/01/04 04:46:38;;;;;;;6.18;2.78;;;;;;;10.53;56.95;98249.81;7710844;32;37926;-82
2024/01/04 04:50:54;;;;;;;5.47;2.87;;;;;;;10.10;58.16;98252.94;7710617;32;38432;-81
2024/01/04 04:55:11;;;;;;;5.97;2.92;;;;;;;9.48;57.53;98252.62;7711252;32;39405;-81
2024/01/04 04:59:27;;;;;;;7.25;2.92;;;;;;;10.09;55.85;98245.91;7710638;32;40178;-81
2024/01/04 05:03:43;;;;;;;5.40;2.60;;;;;;;10.44;54.35;98239.97;7710460;32;37864;-82
2024/01/04 05:08:05;;;;;;;6.30;2.80;;;;;;;10.47;54.19;98237.44;7710568;32;37885;-82
2024/01/04 05:12:21;;;;;;;3.70;2.50;;;;;;;10.55;53.69;98245.97;7710421;32;39332;-82
2024/01/04 05:16:38;;;;;;;5.75;2.20;;;;;;;10.39;54.00;98243.62;7710193;32;40779;-81
2024/01/04 05:20:54;;;;;;;4.28;2.25;;;;;;;10.39;53.74;98243.62;7710057;32;37728;-81
2024/01/04 05:25:14;;;;;;;4.75;2.67;;;;;;;10.49;53.26;98240.66;7710111;32;37274;-81
2024/01/04 05:29:31;;;;;;;5.12;2.60;;;;;;;10.45;53.34;98247.84;7710033;32;39277;-81
2024/01/04 05:33:47;;;;;;;4.45;2.60;;;;;;;10.50;53.02;98250.44;7709890;32;41602;-82
2024/01/04 05:38:04;;;;;;;5.28;2.30;;;;;;;10.43;53.04;98252.78;7709725;32;37964;-82
2024/01/04 05:42:20;;;;;;;4.50;2.72;;;;;;;10.36;53.10;98255.13;7709608;32;37846;-81
2024/01/04 05:46:36;;;;;;;7.85;3.03;;;;;;;10.25;53.26;98251.00;7709573;32;39097;-81
2024/01/04 05:50:53;;;;;;;6.57;2.83;;;;;;;9.88;54.30;98261.06;7709447;32;39698;-81
2024/01/04 05:55:09;;;;;;;7.40;3.17;;;;;;;9.82;53.66;98267.72;7709322;32;38697;-82
2024/01/04 05:59:25;;;;;;;7.10;3.00;;;;;;;10.07;52.91;98253.56;7709081;32;37289;-82
2024/01/04 06:03:41;;;;;;;4.68;2.72;;;;;;;10.17;52.15;98251.72;7711250;32;39376;-81
2024/01/04 06:07:58;;;;;;;6.30;2.83;;;;;;;10.10;52.36;98252.16;7712802;32;40772;-82
2024/01/04 06:12:14;;;;;;;5.10;2.70;;;;;;;10.17;52.24;98254.44;7712852;32;37782;-81
2024/01/04 06:16:30;;;;;;;4.78;2.70;;;;;;;10.09;51.74;98248.63;7712819;32;36770;-82
2024/01/04 06:20:47;;;;;;;5.78;2.40;;;;;;;9.94;51.88;98248.97;7712796;32;40095;-81
2024/01/04 06:25:05;;;;;;;3.25;2.20;;;;;;;9.09;53.66;98257.41;7698752;32;39882;-81
2024/01/04 06:29:21;;;;;;;5.03;2.33;;;;;;;9.48;52.42;98260.78;7712649;32;39362;-82
2024/01/04 06:33:37;;;;;;;4.10;2.45;;;;;;;9.48;52.42;98263.50;7712587;32;37939;-82
2024/01/04 06:37:53;;;;;;;2.60;2.00;;;;;;;9.92;51.11;98267.50;7712616;32;39322;-81
2024/01/04 06:42:10;;;;;;;3.75;2.53;;;;;;;9.74;51.64;98267.34;7712563;32;40021;-81
2024/01/04 06:46:26;;;;;;;3.12;2.25;;;;;;;9.92;51.09;98283.84;7712390;32;38469;-81
2024/01/04 06:50:43;;;;;;;3.83;2.28;;;;;;;9.92;50.76;98283.84;7712486;32;37027;-81
2024/01/04 06:55:00;;;;;;;4.50;2.00;;;;;;;10.27;50.40;98286.91;7712476;32;39505;-82
2024/01/04 06:59:16;;;;;;;3.67;2.00;;;;;;;9.99;50.70;98295.13;7711659;32;39710;-81
2024/01/04 07:03:32;;;;;;;2.00;1.75;;;;;;;9.97;50.43;98308.25;7712140;32;38435;-81
2024/01/04 07:07:49;;;;;;;4.37;2.17;;;;;;;9.73;51.13;98303.81;7712220;32;37146;-81
2024/01/04 07:12:06;;;;;;;9.75;2.70;;;;;;;10.07;49.82;98302.59;7712378;32;39280;-81
2024/01/04 07:16:24;;;;;;;2.78;1.90;;;;;;;10.14;50.48;98305.69;7712079;32;39908;-82
2024/01/04 07:20:41;;;;;;;4.15;2.05;;;;;;;10.60;49.08;98298.44;7712127;32;39162;-81
2024/01/04 07:24:57;;;;;;;6.57;2.30;;;;;;;10.59;49.50;98313.19;7711923;32;38040;-81
2024/01/04 07:29:14;;;;;;;5.95;2.10;;;;;;;10.67;49.71;98322.53;7712003;32;39356;-81
2024/01/04 07:33:30;;;;;;;3.00;1.92;;;;;;;10.44;50.21;98327.97;7712214;32;40025;-81
2024/01/04 07:37:47;;;;;;;5.37;2.30;;;;;;;10.47;50.15;98321.91;7712451;32;37977;-81
2024/01/04 07:42:03;;;;;;;4.05;2.00;;;;;;;10.53;48.88;98337.00;7711783;32;37195;-82
2024/01/04 07:46:19;;;;;;;4.10;1.90;;;;;;;11.15;48.00;98337.50;7711770;32;39535;-81
2024/01/04 07:50:36;;;;;;;3.10;1.80;;;;;;;10.20;49.84;98338.28;7711613;32;39928;-81
2024/01/04 07:54:52;;;;;;;6.90;2.53;;;;;;;10.66;49.02;98345.47;7711621;32;38729;-81
2024/01/04 07:59:08;;;;;;;5.93;2.85;;;;;;;10.39;48.95;98347.13;7711486;32;36773;-81
2024/01/04 08:03:25;;;;;;;20.40;9.88;;;;;;;10.34;49.12;98352.69;7711736;32;39432;-81
2024/01/04 08:07:43;;;;;;;3.47;2.03;;;;;;;10.58;48.85;98338.81;7711447;32;40804;-81
2024/01/04 08:12:00;;;;;;;1.60;1.50;;;;;;;10.15;49.77;98345.41;7711446;32;37015;-81
2024/01/04 08:16:16;;;;;;;2.58;1.77;;;;;;;10.84;48.62;98347.22;7711438;32;37048;-81
2024/01/04 08:20:32;;;;;;;2.05;1.70;;;;;;;10.04;50.21;98341.31;7711425;32;39264;-81
2024/01/04 08:24:49;;;;;;;1.83;1.70;;;;;;;10.26;50.27;98337.88;7710458;32;39952;-81
2024/01/04 08:29:05;;;;;;;2.50;1.50;;;;;;;10.33;50.89;98345.63;7711206;32;38734;-82
2024/01/04 08:33:21;;;;;;;1.70;1.60;;;;;;;10.34;50.57;98339.06;7711197;32;37819;-81
2024/01/04 08:37:38;;;;;;;6.20;1.75;;;;;;;10.11;50.66;98338.97;7711218;32;39355;-81
2024/01/04 08:41:54;;;;;;;2.78;1.58;;;;;;;9.91;50.85;98344.84;7711116;32;40868;-81
2024/01/04 08:46:10;;;;;;;1.58;1.48;;;;;;;10.21;49.64;98340.69;7711002;32;38458;-81
2024/01/04 08:50:27;;;;;;;4.12;1.70;;;;;;;10.17;50.25;98358.72;7710892;32;37513;-82
2024/01/04 08:54:43;;;;;;;1.85;1.65;;;;;;;10.07;49.89;98351.59;7710720;32;39448;-82
2024/01/04 08:59:02;;;;;;;2.25;1.50;;;;;;;10.44;49.61;98362.59;7710526;32;39889;-81
2024/01/04 09:03:18;;;;;;;1.95;1.45;;;;;;;10.88;48.85;98350.94;7710541;32;38491;-81
2024/01/04 09:07:35;;;;;;;2.85;1.60;;;;;;;10.40;49.63;98359.66;7710618;32;37850;-81
2024/01/04 09:11:51;;;;;;;1.65;1.55;;;;;;;9.96;50.02;98358.34;7710478;32;40246;-81
2024/01/04 09:16:07;;;;;;;2.50;1.90;;;;;;;10.12;49.78;98370.56;7710241;32;40731;-82
2024/01/04 09:20:24;;;;;;;1.90;1.67;;;;;;;9.93;49.82;98354.31;7710144;32;38795;-82
2024/01/04 09:24:40;;;;;;;5.43;2.28;;;;;;;9.97;49.87;98351.81;7710176;32;36743;-81
2024/01/04 09:28:57;;;;;;;2.55;1.60;;;;;;;10.25;49.12;98368.91;7710047;32;40093;-82
2024/01/04 09:33:15;;;;;;;2.78;1.70;;;;;;;10.39;49.08;98374.38;7709884;32;40807;-81
2024/01/04 09:37:32;;;;;;;3.22;2.45;;;;;;;10.32;49.25;98369.34;7710833;32;36816;-81
2024/01/04 09:41:50;;;;;;;2.78;1.87;;;;;;;10.07;50.07;98378.00;7713195;32;37245;-81
2024/01/04 09:46:07;;;;;;;4.03;2.10;;;;;;;9.80;50.59;98385.06;7713148;32;39827;-81
2024/01/04 09:50:23;;;;;;;2.05;1.60;;;;;;;10.27;49.29;98382.25;7713083;32;39935;-81
2024/01/04 09:54:41;;;;;;;2.92;2.20;;;;;;;10.23;48.69;98373.06;7699411;32;37667;-81
2024/01/04 09:58:57;;;;;;;3.22;2.80;;;;;;;10.34;49.15;98371.75;7712847;32;37835;-82
2024/01/04 10:03:14;;;;;;;1.62;1.45;;;;;;;10.13;49.07;98385.78;7712987;32;39539;-81
2024/01/04 10:07:35;;;;;;;2.35;1.70;;;;;;;10.65;48.15;98379.28;7712971;32;40836;-81
2024/01/04 10:12:02;;;;;;;1.95;1.73;;;;;;;10.90;46.77;98384.16;7699668;32;37880;-82
2024/01/04 10:16:19;;;;;;;2.00;1.67;;;;;;;10.44;47.24;98377.00;7712825;32;37145;-81
2024/01/04 10:20:36;;;;;;;1.73;1.62;;;;;;;10.44;47.11;98387.91;7712652;32;39429;-81
2024/01/04 10:24:54;;;;;;;2.75;1.70;;;;;;;9.94;48.34;98388.59;7712653;32;39691;-81
2024/01/04 10:29:18;;;;;;;3.62;1.62;;;;;;;10.25;48.67;98377.09;7712677;32;36863;-81
2024/01/04 10:33:35;;;;;;;2.47;1.65;;;;;;;10.25;49.09;98376.28;7712504;32;36763;-81
2024/01/04 10:38:00;;;;;;;2.70;1.70;;;;;;;10.36;48.92;98383.16;7712573;32;39409;-81
2024/01/04 10:42:16;;;;;;;4.03;1.98;;;;;;;10.48;49.04;98378.00;7712488;32;39703;-81
2024/01/04 10:46:36;;;;;;;2.45;1.90;;;;;;;10.53;48.58;98386.06;7712385;32;37929;-81
2024/01/04 10:50:55;;;;;;;2.85;1.90;;;;;;;10.83;48.27;98367.44;7712020;32;36876;-81
2024/01/04 10:55:12;;;;;;;3.05;1.90;;;;;;;10.70;47.54;98365.53;7699218;32;39456;-81
2024/01/04 10:59:29;;;;;;;2.55;1.75;;;;;;;10.45;48.02;98356.81;7712202;32;39705;-81
2024/01/04 11:03:46;;;;;;;2.95;1.60;;;;;;;10.60;47.53;98354.87;7712086;32;38762;-81
2024/01/04 11:08:04;;;;;;;2.25;1.60;;;;;;;10.73;46.93;98355.94;7712296;32;37975;-81
2024/01/04 11:12:22;;;;;;;2.03;1.75;;;;;;;10.27;48.30;98361.25;7712206;32;38987;-82
2024/01/04 11:16:49;;;;;;;2.53;1.60;;;;;;;10.50;48.01;98361.34;7712116;32;40058;-81
2024/01/04 11:21:17;;;;;;;4.10;2.10;;;;;;;10.58;47.66;98357.09;7712057;32;38091;-81
2024/01/04 11:25:52;;;;;;;2.47;1.90;;;;;;;10.31;49.25;98361.44;7712040;32;36982;-81
2024/01/04 11:30:10;;;;;;;1.55;1.45;;;;;;;10.27;49.37;98369.41;7712044;32;39296;-81
2024/01/04 11:34:26;;;;;;;4.45;1.85;;;;;;;10.30;48.85;98370.75;7711959;32;39657;-81
2024/01/04 11:38:45;;;;;;;2.60;1.98;;;;;;;10.17;49.93;98366.91;7711785;32;38833;-81
2024/01/04 11:43:14;;;;;;;2.72;1.75;;;;;;;10.15;51.11;98385.47;7711793;32;36942;-82
2024/01/04 11:47:38;;;;;;;4.87;1.60;;;;;;;10.13;51.80;98372.16;7711827;32;39940;-81
2024/01/04 11:52:00;;;;;;;2.47;1.85;;;;;;;10.37;50.49;98370.37;7698995;32;40838;-81
2024/01/04 11:56:18;;;;;;;2.17;1.52;;;;;;;10.28;50.75;98394.75;7711781;32;37627;-82
2024/01/04 12:00:36;;;;;;;2.58;1.90;;;;;;;10.33;50.24;98372.88;7710561;32;36844;-81
2024/01/04 12:04:52;;;;;;;1.70;1.58;;;;;;;10.22;50.97;98369.53;7697893;32;39080;-82
2024/01/04 12:09:10;;;;;;;2.50;1.65;;;;;;;10.07;51.81;98367.09;7711543;32;39743;-81
2024/01/04 12:13:26;;;;;;;2.30;1.87;;;;;;;10.14;52.20;98352.00;7711507;32;37619;-81
2024/01/04 12:17:42;;;;;;;2.72;1.48;;;;;;;10.32;51.69;98354.94;7711494;32;37799;-81
2024/01/04 12:21:59;;;;;;;1.62;1.52;;;;;;;10.23;51.06;98360.25;7711442;32;39502;-81
2024/01/04 12:26:16;;;;;;;1.30;1.30;;;;;;;10.32;51.44;98368.53;7711220;32;39845;-81
2024/01/04 12:30:32;;;;;;;1.33;1.27;;;;;;;10.31;52.89;98388.69;7711151;32;38595;-81
2024/01/04 12:34:49;;;;;;;1.30;1.30;;;;;;;10.28;53.20;98387.38;7711168;32;37482;-81
2024/01/04 12:39:10;;;;;;;2.55;1.67;;;;;;;10.00;53.80;98381.12;7711139;32;40159;-81
2024/01/04 12:43:27;;;;;;;1.65;1.37;;;;;;;9.87;53.67;98390.91;7710916;32;40730;-82
2024/01/04 12:47:43;;;;;;;2.17;1.65;;;;;;;10.03;53.91;98387.91;7710976;32;38650;-82
2024/01/04 12:52:11;;;;;;;2.62;1.67;;;;;;;9.89;55.02;98387.88;7711227;32;36882;-81
2024/01/04 12:56:27;;;;;;;1.58;1.40;;;;;;;10.35;54.00;98400.63;7710955;32;40229;-81
2024/01/04 13:00:43;;;;;;;1.30;1.30;;;;;;;9.64;54.78;98398.16;7710635;32;39902;-82
2024/01/04 13:05:00;;;;;;;1.60;1.48;;;;;;;9.75;54.41;98388.69;7710548;32;38892;-82
2024/01/04 13:09:17;;;;;;;1.60;1.48;;;;;;;10.08;54.50;98399.50;7710633;32;36922;-81
2024/01/04 13:13:34;;;;;;;2.08;1.48;;;;;;;9.85;54.92;98398.56;7710152;32;39392;-81
2024/01/04 13:17:50;;;;;;;1.95;1.40;;;;;;;9.69;55.15;98411.66;7710393;32;40000;-81
2024/01/04 13:22:07;;;;;;;1.77;1.45;;;;;;;9.67;55.24;98408.41;7710250;32;38385;-81
2024/01/04 13:26:24;;;;;;;1.65;1.40;;;;;;;9.92;53.74;98409.88;7710139;32;36979;-81
2024/01/04 13:30:40;;;;;;;1.50;1.40;;;;;;;10.34;52.76;98399.81;7710175;32;40033;-82
2024/01/04 13:34:56;;;;;;;1.62;1.50;;;;;;;10.09;53.07;98401.13;7709959;32;39606;-81
2024/01/04 13:39:13;;;;;;;2.97;1.20;;;;;;;10.41;52.61;98409.50;7709809;32;38064;-82
2024/01/04 13:43:29;;;;;;;2.67;1.40;;;;;;;10.62;51.79;98415.31;7709639;32;37916;-81
2024/01/04 13:47:46;;;;;;;1.90;1.50;;;;;;;10.67;51.67;98413.28;7709650;32;39435;-81
2024/01/04 13:52:03;;;;;;;2.87;1.50;;;;;;;10.34;51.32;98434.41;7709530;32;39943;-82
2024/01/04 13:56:20;;;;;;;1.65;1.40;;;;;;;10.47;51.43;98439.06;7695581;32;37969;-82
2024/01/04 14:00:36;;;;;;;1.23;1.20;;;;;;;11.40;49.25;98431.53;7709390;32;37474;-82
2024/01/04 14:04:52;;;;;;;1.42;1.33;;;;;;;11.12;49.83;98444.47;7709219;32;39136;-81
2024/01/04 14:09:09;;;;;;;1.75;1.42;;;;;;;10.97;50.93;98454.63;7709077;32;39904;-81
2024/01/04 14:13:25;;;;;;;2.95;1.80;;;;;;;10.81;51.42;98456.88;7708864;32;38816;-82
2024/01/04 14:17:41;;;;;;;1.90;1.40;;;;;;;10.56;52.28;98462.88;7708839;32;37775;-82
2024/01/04 14:21:58;;;;;;;4.00;1.50;;;;;;;11.23;49.38;98452.13;7708769;32;39382;-82
2024/01/04 14:26:15;;;;;;;2.12;1.30;;;;;;;13.20;44.77;98460.19;7712523;32;39681;-81
2024/01/04 14:30:31;;;;;;;1.62;1.20;;;;;;;14.09;42.47;98454.31;7712622;32;38659;-82
2024/01/04 14:34:48;;;;;;;1.00;1.00;;;;;;;12.17;46.64;98473.28;7712652;32;37073;-82
2024/01/04 14:39:04;;;;;;;3.12;1.33;;;;;;;11.47;48.44;98489.22;7712636;32;39049;-81
2024/01/04 14:43:21;;;;;;;1.20;1.10;;;;;;;11.12;49.74;98488.91;7712437;32;40549;-81
2024/01/04 14:47:41;;;;;;;1.40;1.30;;;;;;;10.87;50.58;98493.03;7712448;32;37835;-81
2024/01/04 14:52:00;;;;;;;1.45;1.30;;;;;;;10.32;51.63;98494.66;7712461;32;37158;-81
2024/01/04 14:56:21;;;;;;;5.35;1.50;;;;;;;10.34;51.42;98497.06;7712521;32;39141;-81
2024/01/04 15:00:38;;;;;;;1.20;1.20;;;;;;;10.28;51.69;98504.50;7707147;32;165452;-81
2024/01/04 15:04:54;;;;;;;4.43;1.77;;;;;;;10.42;50.90;98511.94;7712233;32;38092;-81
2024/01/04 15:09:15;;;;;;;1.25;1.15;;;;;;;10.20;51.22;98520.75;7712244;32;37131;-82
2024/01/04 15:13:32;;;;;;;1.40;1.30;;;;;;;9.95;51.74;98523.63;7712239;32;40182;-81
2024/01/04 15:17:48;;;;;;;4.22;2.67;;;;;;;10.15;51.38;98518.91;7712149;32;40492;-81
2024/01/04 15:22:05;;;;;;;3.70;1.80;;;;;;;10.01;52.26;98531.69;7711963;32;38115;-81
2024/01/04 15:26:21;;;;;;;4.53;2.30;;;;;;;9.88;53.11;98533.25;7711935;32;37342;-82
2024/01/04 15:30:37;;;;;;;3.42;2.00;;;;;;;10.04;52.67;98537.34;7711997;32;40145;-82
2024/01/04 15:34:54;;;;;;;2.00;1.90;;;;;;;9.84;53.67;98545.84;7711779;32;40902;-82
2024/01/04 15:39:11;;;;;;;5.68;2.15;;;;;;;10.01;53.28;98557.00;7711905;32;37974;-81
2024/01/04 15:43:28;;;;;;;5.37;2.92;;;;;;;9.97;53.88;98553.28;7711846;32;37098;-81
2024/01/04 15:47:45;;;;;;;3.83;2.00;;;;;;;9.86;53.90;98563.50;7711906;32;39389;-81
2024/01/04 15:52:02;;;;;;;2.10;1.65;;;;;;;9.83;53.88;98563.28;7711698;32;40805;-81
2024/01/04 15:56:22;;;;;;;4.95;1.90;;;;;;;9.65;53.93;98576.63;7711674;32;37694;-81
2024/01/04 16:00:39;;;;;;;1.95;1.70;;;;;;;9.66;53.96;98578.25;7711609;32;37099;-82
2024/01/04 16:04:55;;;;;;;2.47;1.70;;;;;;;9.56;54.39;98575.69;7711466;32;39348;-81
2024/01/04 16:09:12;;;;;;;3.65;2.12;;;;;;;10.01;52.62;98588.88;7711497;32;39979;-81
2024/01/04 16:13:28;;;;;;;2.95;1.77;;;;;;;9.84;52.88;98586.69;7711444;32;37657;-81
2024/01/04 16:17:45;;;;;;;3.85;2.12;;;;;;;9.64;53.63;98599.50;7711464;32;37058;-81
2024/01/04 16:22:01;;;;;;;3.03;1.60;;;;;;;10.06;53.02;98591.50;7711423;32;39371;-81
2024/01/04 16:26:18;;;;;;;2.92;1.45;;;;;;;10.04;53.12;98597.25;7711286;32;39941;-82
2024/01/04 16:30:34;;;;;;;4.03;1.80;;;;;;;9.61;53.54;98604.72;7711301;32;37644;-81
2024/01/04 16:34:51;;;;;;;2.87;1.70;;;;;;;9.86;53.27;98607.06;7711317;32;37026;-82
2024/01/04 16:39:09;;;;;;;8.30;2.45;;;;;;;9.47;54.30;98613.63;7711199;32;40186;-81
2024/01/04 16:43:26;;;;;;;4.90;2.20;;;;;;;9.75;53.34;98611.84;7711108;32;38849;-82
2024/01/04 16:47:42;;;;;;;5.22;2.83;;;;;;;10.08;52.17;98616.53;7710192;32;38685;-81
2024/01/04 16:51:59;;;;;;;2.37;1.87;;;;;;;9.78;52.47;98626.78;7710952;32;38202;-81
2024/01/04 16:56:15;;;;;;;3.35;2.17;;;;;;;9.67;52.61;98634.28;7710979;32;39442;-81
2024/01/04 17:00:31;;;;;;;5.65;2.78;;;;;;;9.56;53.42;98651.87;7710588;32;40787;-81
2024/01/04 17:04:48;;;;;;;6.07;2.83;;;;;;;9.57;54.03;98667.06;7710683;32;37830;-82
2024/01/04 17:09:04;;;;;;;5.65;3.00;;;;;;;9.43;54.81;98666.19;7710598;32;36738;-81
2024/01/04 17:13:21;;;;;;;4.32;2.22;;;;;;;9.09;55.28;98659.78;7711016;32;39468;-81
2024/01/04 17:18:09;;;;;;;5.75;2.75;;;;;;;9.82;53.35;98673.28;7890507;31;185584;-82
2024/01/04 17:22:26;;;;;;;5.82;2.60;;;;;;;9.82;53.35;98673.28;7868027;31;40703;-82
2024/01/04 17:26:42;;;;;;;3.83;2.50;;;;;;;9.39;53.70;98674.13;7867909;31;37612;-82
2024/01/04 17:30:59;;;;;;;6.65;3.00;;;;;;;9.48;53.32;98687.88;7867974;31;36858;-82
2024/01/04 17:35:16;;;;;;;5.93;3.45;;;;;;;9.86;52.49;98677.81;7867822;31;39078;-82
2024/01/04 17:39:32;;;;;;;8.35;2.40;;;;;;;9.46;52.84;98692.81;7867806;31;39718;-83
2024/01/04 17:43:48;;;;;;;7.25;2.90;;;;;;;9.35;53.11;98687.50;7867688;31;38620;-82
2024/01/04 17:48:05;;;;;;;3.90;2.28;;;;;;;9.37;53.03;98695.38;7867718;31;36974;-82
2024/01/04 17:52:22;;;;;;;3.15;2.00;;;;;;;9.24;53.52;98705.00;7867711;31;39748;-83
2024/01/04 17:56:38;;;;;;;3.30;2.05;;;;;;;9.21;52.84;98711.06;7867616;31;40779;-82
2024/01/04 18:00:54;;;;;;;6.00;1.85;;;;;;;9.47;52.25;98713.44;7867445;31;37638;-82
2024/01/04 18:05:11;;;;;;;4.72;1.75;;;;;;;9.30;52.45;98722.91;7867476;31;37755;-82
2024/01/04 18:09:27;;;;;;;4.22;2.10;;;;;;;9.44;52.38;98714.84;7867431;31;39932;-83
2024/01/04 18:13:44;;;;;;;4.32;2.58;;;;;;;9.34;53.16;98726.66;7867311;31;40033;-82
2024/01/04 18:18:00;;;;;;;2.33;1.80;;;;;;;9.06;53.47;98730.25;7865720;31;37750;-82
2024/01/04 18:22:16;;;;;;;3.72;1.80;;;;;;;9.49;52.75;98731.13;7867210;31;37695;-82
2024/01/04 18:26:33;;;;;;;2.85;2.00;;;;;;;9.11;53.65;98727.47;7861758;31;39146;-82
2024/01/04 18:30:49;;;;;;;4.80;2.00;;;;;;;8.84;54.26;98729.63;7848709;31;40857;-82
2024/01/04 18:35:06;;;;;;;2.92;2.05;;;;;;;9.13;53.91;98731.50;7848591;31;37883;-82
2024/01/04 18:39:22;;;;;;;2.75;2.05;;;;;;;8.81;54.57;98740.25;7848707;31;36877;-82
2024/01/04 18:43:39;;;;;;;4.25;2.15;;;;;;;9.01;53.03;98745.50;7848733;31;39414;-82
2024/01/04 18:47:55;;;;;;;3.10;2.05;;;;;;;8.83;52.96;98740.78;7848404;31;40003;-82
2024/01/04 18:52:11;;;;;;;3.97;2.35;;;;;;;9.05;52.61;98750.37;7848316;31;38747;-83
2024/01/04 18:56:28;;;;;;;2.70;1.70;;;;;;;8.94;53.33;98747.75;7848250;31;36862;-82
2024/01/04 19:00:44;;;;;;;2.78;1.87;;;;;;;8.74;53.92;98756.88;7848123;31;39824;-82
2024/01/04 19:05:01;;;;;;;2.17;1.70;;;;;;;8.82;53.70;98769.06;7848268;31;41084;-82
2024/01/04 19:09:19;;;;;;;5.00;1.92;;;;;;;8.58;54.09;98775.22;7848055;31;38519;-82
2024/01/04 19:13:36;;;;;;;3.80;1.90;;;;;;;8.59;54.05;98774.13;7848225;31;35918;-82
2024/01/04 19:17:53;;;;;;;3.60;2.00;;;;;;;8.52;55.04;98781.81;7848079;31;39241;-82
2024/01/04 19:22:09;;;;;;;5.85;2.75;;;;;;;8.20;56.25;98783.03;7848423;31;37712;-82
2024/01/04 19:26:26;;;;;;;9.32;3.87;;;;;;;8.30;56.02;98774.03;7847886;31;37733;-82
2024/01/04 19:30:42;;;;;;;2.40;2.10;;;;;;;8.25;56.51;98777.59;7847958;31;36713;-81
2024/01/04 19:34:59;;;;;;;3.05;1.87;;;;;;;8.77;54.54;98788.94;7847790;31;39305;-81
2024/01/04 19:39:17;;;;;;;6.72;3.00;;;;;;;8.61;55.15;98785.53;7846711;31;40838;-82
2024/01/04 19:43:34;;;;;;;2.90;1.80;;;;;;;8.30;56.17;98782.19;7847645;31;37734;-81
2024/01/04 19:47:50;;;;;;;4.87;2.22;;;;;;;8.64;54.95;98784.97;7847796;31;36694;-82
2024/01/04 19:52:07;;;;;;;5.72;2.50;;;;;;;8.26;55.95;98792.78;7847644;31;39862;-82
2024/01/04 19:56:24;;;;;;;4.50;2.67;;;;;;;8.49;55.43;98800.56;7847608;31;39931;-81
2024/01/04 20:00:40;;;;;;;2.72;2.35;;;;;;;8.81;54.71;98791.88;7847466;31;37809;-82
2024/01/04 20:04:57;;;;;;;4.35;2.50;;;;;;;8.37;55.85;98815.25;7847515;31;36889;-81
2024/01/04 20:09:13;;;;;;;3.22;2.40;;;;;;;8.40;55.69;98817.44;7847432;31;39948;-82
2024/01/04 20:13:30;;;;;;;2.17;1.95;;;;;;;8.19;56.01;98829.47;7847433;31;39882;-82